sensor_id;sensor_type;location;lat;lon;timestamp;temperature;humidity
38221;DHT22;24023;51.280;7.148;2023-10-13T00:00:26;17.3;99.9
38221;DHT22;24023;51.280;7.148;2023-10-13T00:05:09;17.3;99.9
38221;DHT22;24023;51.280;7.148;2023-10-13T00:10:15;17.3;99.9
38221;DHT22;24023;51.280;7.148;2023-10-13T00:15:14;17.3;99.9
38221;DHT22;24023;51.280;7.148;2023-10-13T00:20:13;17.4;99.9
38221;DHT22;24023;51.280;7.148;2023-10-13T00:25:07;17.4;99.9
38221;DHT22;24023;51.280;7.148;2023-10-13T00:30:22;17.4;99.9
38221;DHT22;24023;51.280;7.148;2023-10-13T00:35:07;17.4;99.9
38221;DHT22;24023;51.280;7.148;2023-10-13T00:40:18;17.4;99.9
38221;DHT22;24023;51.280;7.148;2023-10-13T00:45:09;17.4;99.9
38221;DHT22;24023;51.280;7.148;2023-10-13T00:50:12;17.4;99.9
38221;DHT22;24023;51.280;7.148;2023-10-13T00:55:09;17.4;99.9
38221;DHT22;24023;51.280;7.148;2023-10-13T01:00:19;17.4;99.9
38221;DHT22;24023;51.280;7.148;2023-10-13T01:05:10;17.4;99.9
38221;DHT22;24023;51.280;7.148;2023-10-13T01:10:10;17.4;99.9
38221;DHT22;24023;51.280;7.148;2023-10-13T01:15:11;17.4;99.9
38221;DHT22;24023;51.280;7.148;2023-10-13T01:20:12;17.4;99.9
38221;DHT22;24023;51.280;7.148;2023-10-13T01:25:13;17.4;99.9
38221;DHT22;24023;51.280;7.148;2023-10-13T01:30:13;17.4;99.9
38221;DHT22;24023;51.280;7.148;2023-10-13T01:35:07;17.4;99.9
38221;DHT22;24023;51.280;7.148;2023-10-13T01:40:08;17.4;99.9
38221;DHT22;24023;51.280;7.148;2023-10-13T01:45:10;17.4;99.9
38221;DHT22;24023;51.280;7.148;2023-10-13T01:50:20;17.4;99.9
38221;DHT22;24023;51.280;7.148;2023-10-13T01:55:08;17.4;99.9
38221;DHT22;24023;51.280;7.148;2023-10-13T02:00:19;17.4;99.9
38221;DHT22;24023;51.280;7.148;2023-10-13T02:05:07;17.4;99.9
38221;DHT22;24023;51.280;7.148;2023-10-13T02:10:12;17.4;99.9
38221;DHT22;24023;51.280;7.148;2023-10-13T02:15:09;17.3;99.9
38221;DHT22;24023;51.280;7.148;2023-10-13T02:20:10;17.3;99.9
38221;DHT22;24023;51.280;7.148;2023-10-13T02:25:09;17.3;99.9
38221;DHT22;24023;51.280;7.148;2023-10-13T02:30:15;17.4;99.9
38221;DHT22;24023;51.280;7.148;2023-10-13T02:35:07;17.4;99.9
38221;DHT22;24023;51.280;7.148;2023-10-13T02:40:10;17.2;99.9
38221;DHT22;24023;51.280;7.148;2023-10-13T02:45:11;17.2;99.9
38221;DHT22;24023;51.280;7.148;2023-10-13T02:50:13;17.2;99.9
38221;DHT22;24023;51.280;7.148;2023-10-13T02:55:10;17.2;99.9
38221;DHT22;24023;51.280;7.148;2023-10-13T03:00:13;17.2;99.9
38221;DHT22;24023;51.280;7.148;2023-10-13T03:05:10;17.2;99.9
38221;DHT22;24023;51.280;7.148;2023-10-13T03:10:10;17.2;99.9
38221;DHT22;24023;51.280;7.148;2023-10-13T03:15:14;17.2;99.9
38221;DHT22;24023;51.280;7.148;2023-10-13T03:20:09;17.0;99.9
38221;DHT22;24023;51.280;7.148;2023-10-13T03:25:07;17.0;99.9
38221;DHT22;24023;51.280;7.148;2023-10-13T03:30:14;17.1;99.9
38221;DHT22;24023;51.280;7.148;2023-10-13T03:35:11;17.1;99.9
38221;DHT22;24023;51.280;7.148;2023-10-13T03:40:16;17.1;99.9
38221;DHT22;24023;51.280;7.148;2023-10-13T03:45:11;17.1;99.9
38221;DHT22;24023;51.280;7.148;2023-10-13T03:50:15;17.1;99.9
38221;DHT22;24023;51.280;7.148;2023-10-13T03:55:08;17.2;99.9
38221;DHT22;24023;51.280;7.148;2023-10-13T04:00:22;17.2;99.9
38221;DHT22;24023;51.280;7.148;2023-10-13T04:05:09;17.2;99.9
38221;DHT22;24023;51.280;7.148;2023-10-13T04:15:24;17.2;99.9
38221;DHT22;24023;51.280;7.148;2023-10-13T04:20:40;17.2;99.9
38221;DHT22;24023;51.280;7.148;2023-10-13T04:25:36;17.2;99.9
38221;DHT22;24023;51.280;7.148;2023-10-13T04:30:11;17.2;99.9
38221;DHT22;24023;51.280;7.148;2023-10-13T04:35:11;17.3;99.9
38221;DHT22;24023;51.280;7.148;2023-10-13T04:40:10;17.3;99.9
38221;DHT22;24023;51.280;7.148;2023-10-13T04:45:28;17.3;99.9
38221;DHT22;24023;51.280;7.148;2023-10-13T04:50:22;17.4;99.9
38221;DHT22;24023;51.280;7.148;2023-10-13T04:56:53;17.4;99.9
38221;DHT22;24023;51.280;7.148;2023-10-13T05:00:58;17.3;99.9
38221;DHT22;24023;51.280;7.148;2023-10-13T05:05:44;17.3;99.9
38221;DHT22;24023;51.280;7.148;2023-10-13T05:45:24;17.2;99.9
38221;DHT22;24023;51.280;7.148;2023-10-13T05:50:14;17.2;99.9
38221;DHT22;24023;51.280;7.148;2023-10-13T06:30:10;17.5;99.9
38221;DHT22;24023;51.280;7.148;2023-10-13T06:35:08;17.5;99.9
38221;DHT22;24023;51.280;7.148;2023-10-13T06:40:22;17.5;99.9
38221;DHT22;24023;51.280;7.148;2023-10-13T06:45:09;17.5;99.9
38221;DHT22;24023;51.280;7.148;2023-10-13T06:50:16;17.5;99.9
38221;DHT22;24023;51.280;7.148;2023-10-13T06:55:06;17.6;99.9
38221;DHT22;24023;51.280;7.148;2023-10-13T07:00:20;17.6;99.9
38221;DHT22;24023;51.280;7.148;2023-10-13T07:05:08;17.6;99.9
38221;DHT22;24023;51.280;7.148;2023-10-13T07:10:09;17.6;99.9
38221;DHT22;24023;51.280;7.148;2023-10-13T07:15:11;17.8;99.9
38221;DHT22;24023;51.280;7.148;2023-10-13T07:20:16;17.8;99.9
38221;DHT22;24023;51.280;7.148;2023-10-13T07:25:08;17.8;99.9
38221;DHT22;24023;51.280;7.148;2023-10-13T07:30:14;17.9;99.9
38221;DHT22;24023;51.280;7.148;2023-10-13T07:35:12;17.9;99.9
38221;DHT22;24023;51.280;7.148;2023-10-13T07:40:22;17.9;99.9
38221;DHT22;24023;51.280;7.148;2023-10-13T07:45:12;17.9;99.9
38221;DHT22;24023;51.280;7.148;2023-10-13T07:50:08;18.1;99.9
38221;DHT22;24023;51.280;7.148;2023-10-13T07:55:20;18.1;99.9
38221;DHT22;24023;51.280;7.148;2023-10-13T08:00:13;18.1;99.9
38221;DHT22;24023;51.280;7.148;2023-10-13T08:05:09;18.1;99.9
38221;DHT22;24023;51.280;7.148;2023-10-13T08:10:11;18.2;99.9
38221;DHT22;24023;51.280;7.148;2023-10-13T08:15:21;18.2;99.9
38221;DHT22;24023;51.280;7.148;2023-10-13T08:20:12;18.1;99.9
38221;DHT22;24023;51.280;7.148;2023-10-13T08:25:25;18.1;99.9
38221;DHT22;24023;51.280;7.148;2023-10-13T08:31:22;18.1;99.9
38221;DHT22;24023;51.280;7.148;2023-10-13T08:35:38;18.2;99.9
38221;DHT22;24023;51.280;7.148;2023-10-13T08:40:44;18.2;99.9
38221;DHT22;24023;51.280;7.148;2023-10-13T08:45:10;18.5;99.9
38221;DHT22;24023;51.280;7.148;2023-10-13T08:50:31;18.5;99.9
38221;DHT22;24023;51.280;7.148;2023-10-13T08:55:40;18.8;99.9
38221;DHT22;24023;51.280;7.148;2023-10-13T09:01:36;18.8;99.9
38221;DHT22;24023;51.280;7.148;2023-10-13T09:05:37;19.3;99.9
38221;DHT22;24023;51.280;7.148;2023-10-13T09:10:33;19.3;99.9
38221;DHT22;24023;51.280;7.148;2023-10-13T09:15:28;19.3;99.9
38221;DHT22;24023;51.280;7.148;2023-10-13T09:20:32;19.5;99.9
38221;DHT22;24023;51.280;7.148;2023-10-13T09:25:07;19.5;99.9
38221;DHT22;24023;51.280;7.148;2023-10-13T09:30:11;19.6;99.9
38221;DHT22;24023;51.280;7.148;2023-10-13T09:35:17;19.6;99.9
38221;DHT22;24023;51.280;7.148;2023-10-13T09:40:25;19.6;99.9
38221;DHT22;24023;51.280;7.148;2023-10-13T09:45:13;19.9;99.9
38221;DHT22;24023;51.280;7.148;2023-10-13T09:50:14;19.9;99.9
38221;DHT22;24023;51.280;7.148;2023-10-13T09:55:16;19.9;99.9
38221;DHT22;24023;51.280;7.148;2023-10-13T10:00:31;19.9;99.9
38221;DHT22;24023;51.280;7.148;2023-10-13T10:05:24;19.9;99.9
38221;DHT22;24023;51.280;7.148;2023-10-13T10:10:09;20.4;99.9
38221;DHT22;24023;51.280;7.148;2023-10-13T10:15:26;20.5;99.9
38221;DHT22;24023;51.280;7.148;2023-10-13T10:20:28;20.5;99.9
38221;DHT22;24023;51.280;7.148;2023-10-13T10:25:08;21.0;99.9
38221;DHT22;24023;51.280;7.148;2023-10-13T10:30:24;21.0;99.9
38221;DHT22;24023;51.280;7.148;2023-10-13T10:35:10;21.0;99.9
38221;DHT22;24023;51.280;7.148;2023-10-13T10:40:09;21.2;99.9
38221;DHT22;24023;51.280;7.148;2023-10-13T10:45:12;21.2;99.9
38221;DHT22;24023;51.280;7.148;2023-10-13T10:50:25;21.0;99.9
38221;DHT22;24023;51.280;7.148;2023-10-13T10:55:08;21.0;99.9
38221;DHT22;24023;51.280;7.148;2023-10-13T11:00:18;21.0;99.9
38221;DHT22;24023;51.280;7.148;2023-10-13T11:05:07;21.2;99.9
38221;DHT22;24023;51.280;7.148;2023-10-13T11:10:13;21.2;99.9
38221;DHT22;24023;51.280;7.148;2023-10-13T11:15:14;21.8;99.9
38221;DHT22;24023;51.280;7.148;2023-10-13T11:20:18;21.8;99.9
38221;DHT22;24023;51.280;7.148;2023-10-13T11:25:19;21.8;99.9
38221;DHT22;24023;51.280;7.148;2023-10-13T11:30:14;21.8;99.9
38221;DHT22;24023;51.280;7.148;2023-10-13T11:35:11;21.8;99.9
38221;DHT22;24023;51.280;7.148;2023-10-13T11:40:11;21.6;99.9
38221;DHT22;24023;51.280;7.148;2023-10-13T11:45:17;21.6;99.9
38221;DHT22;24023;51.280;7.148;2023-10-13T11:50:08;21.6;99.9
38221;DHT22;24023;51.280;7.148;2023-10-13T11:55:07;21.6;99.9
38221;DHT22;24023;51.280;7.148;2023-10-13T12:00:27;21.6;99.9
38221;DHT22;24023;51.280;7.148;2023-10-13T12:05:12;21.9;99.9
38221;DHT22;24023;51.280;7.148;2023-10-13T12:10:16;21.9;99.9
38221;DHT22;24023;51.280;7.148;2023-10-13T12:15:25;21.7;99.6
38221;DHT22;24023;51.280;7.148;2023-10-13T12:20:11;21.7;99.6
38221;DHT22;24023;51.280;7.148;2023-10-13T12:25:18;21.6;99.9
38221;DHT22;24023;51.280;7.148;2023-10-13T12:30:14;21.6;99.9
38221;DHT22;24023;51.280;7.148;2023-10-13T12:35:27;21.6;99.9
38221;DHT22;24023;51.280;7.148;2023-10-13T12:50:14;21.5;99.6
38221;DHT22;24023;51.280;7.148;2023-10-13T12:55:07;21.5;99.6
38221;DHT22;24023;51.280;7.148;2023-10-13T13:00:18;21.5;99.6
38221;DHT22;24023;51.280;7.148;2023-10-13T13:05:12;21.6;99.0
38221;DHT22;24023;51.280;7.148;2023-10-13T13:10:09;21.6;99.0
38221;DHT22;24023;51.280;7.148;2023-10-13T13:15:10;21.7;98.8
38221;DHT22;24023;51.280;7.148;2023-10-13T13:20:12;21.7;98.8
38221;DHT22;24023;51.280;7.148;2023-10-13T13:25:11;21.6;97.9
38221;DHT22;24023;51.280;7.148;2023-10-13T13:30:13;21.6;97.9
38221;DHT22;24023;51.280;7.148;2023-10-13T13:35:08;21.6;97.9
38221;DHT22;24023;51.280;7.148;2023-10-13T13:40:14;21.7;96.6
38221;DHT22;24023;51.280;7.148;2023-10-13T13:45:13;21.7;96.6
38221;DHT22;24023;51.280;7.148;2023-10-13T13:50:15;21.5;96.7
38221;DHT22;24023;51.280;7.148;2023-10-13T13:55:08;21.5;96.7
38221;DHT22;24023;51.280;7.148;2023-10-13T14:00:37;21.5;96.7
38221;DHT22;24023;51.280;7.148;2023-10-13T14:05:07;21.4;95.9
38221;DHT22;24023;51.280;7.148;2023-10-13T14:10:17;21.4;95.9
38221;DHT22;24023;51.280;7.148;2023-10-13T14:15:19;21.5;96.1
38221;DHT22;24023;51.280;7.148;2023-10-13T14:20:11;21.5;96.1
38221;DHT22;24023;51.280;7.148;2023-10-13T14:25:11;21.4;95.1
38221;DHT22;24023;51.280;7.148;2023-10-13T14:30:10;21.4;95.1
38221;DHT22;24023;51.280;7.148;2023-10-13T14:35:14;21.3;95.3
38221;DHT22;24023;51.280;7.148;2023-10-13T14:40:13;21.3;95.3
38221;DHT22;24023;51.280;7.148;2023-10-13T14:45:13;21.3;95.3
38221;DHT22;24023;51.280;7.148;2023-10-13T14:50:14;21.2;95.3
38221;DHT22;24023;51.280;7.148;2023-10-13T14:55:08;21.2;94.8
38221;DHT22;24023;51.280;7.148;2023-10-13T15:00:14;21.2;94.8
38221;DHT22;24023;51.280;7.148;2023-10-13T15:05:07;21.2;94.6
38221;DHT22;24023;51.280;7.148;2023-10-13T15:10:15;21.2;94.6
38221;DHT22;24023;51.280;7.148;2023-10-13T15:15:13;21.2;94.6
38221;DHT22;24023;51.280;7.148;2023-10-13T15:20:11;21.1;94.5
38221;DHT22;24023;51.280;7.148;2023-10-13T15:25:17;21.1;94.5
38221;DHT22;24023;51.280;7.148;2023-10-13T15:30:20;21.1;94.5
38221;DHT22;24023;51.280;7.148;2023-10-13T15:35:12;21.1;94.4
38221;DHT22;24023;51.280;7.148;2023-10-13T15:40:16;21.1;94.4
38221;DHT22;24023;51.280;7.148;2023-10-13T15:45:17;21.0;94.3
38221;DHT22;24023;51.280;7.148;2023-10-13T15:50:08;21.0;94.3
38221;DHT22;24023;51.280;7.148;2023-10-13T15:55:07;21.0;94.3
38221;DHT22;24023;51.280;7.148;2023-10-13T16:00:30;20.9;94.4
38221;DHT22;24023;51.280;7.148;2023-10-13T16:05:08;20.9;94.4
38221;DHT22;24023;51.280;7.148;2023-10-13T16:10:12;20.8;94.0
38221;DHT22;24023;51.280;7.148;2023-10-13T16:15:14;20.8;94.0
38221;DHT22;24023;51.280;7.148;2023-10-13T16:20:16;20.8;94.0
38221;DHT22;24023;51.280;7.148;2023-10-13T16:25:12;20.8;94.3
38221;DHT22;24023;51.280;7.148;2023-10-13T16:30:12;20.8;94.3
38221;DHT22;24023;51.280;7.148;2023-10-13T16:35:07;20.6;94.3
38221;DHT22;24023;51.280;7.148;2023-10-13T16:40:09;20.6;94.3
38221;DHT22;24023;51.280;7.148;2023-10-13T16:45:15;20.5;94.4
38221;DHT22;24023;51.280;7.148;2023-10-13T16:50:10;20.5;94.4
38221;DHT22;24023;51.280;7.148;2023-10-13T16:55:07;20.5;94.4
38221;DHT22;24023;51.280;7.148;2023-10-13T17:00:13;20.4;94.7
38221;DHT22;24023;51.280;7.148;2023-10-13T17:05:10;20.4;94.7
38221;DHT22;24023;51.280;7.148;2023-10-13T17:10:12;20.3;94.4
38221;DHT22;24023;51.280;7.148;2023-10-13T17:15:14;20.3;94.4
38221;DHT22;24023;51.280;7.148;2023-10-13T17:20:10;20.3;94.4
38221;DHT22;24023;51.280;7.148;2023-10-13T17:25:06;20.3;94.8
38221;DHT22;24023;51.280;7.148;2023-10-13T17:30:10;20.2;97.0
38221;DHT22;24023;51.280;7.148;2023-10-13T17:35:07;20.2;97.0
38221;DHT22;24023;51.280;7.148;2023-10-13T17:40:10;19.8;97.7
38221;DHT22;24023;51.280;7.148;2023-10-13T17:45:16;19.9;97.7
38221;DHT22;24023;51.280;7.148;2023-10-13T17:50:09;19.9;97.7
38221;DHT22;24023;51.280;7.148;2023-10-13T17:55:07;19.8;98.4
38221;DHT22;24023;51.280;7.148;2023-10-13T18:00:16;19.8;98.4
38221;DHT22;24023;51.280;7.148;2023-10-13T18:05:11;19.8;98.4
38221;DHT22;24023;51.280;7.148;2023-10-13T18:10:11;19.5;99.9
38221;DHT22;24023;51.280;7.148;2023-10-13T18:15:11;19.5;99.9
38221;DHT22;24023;51.280;7.148;2023-10-13T18:20:11;19.3;99.9
38221;DHT22;24023;51.280;7.148;2023-10-13T18:25:13;19.3;99.9
38221;DHT22;24023;51.280;7.148;2023-10-13T18:30:14;19.3;99.9
38221;DHT22;24023;51.280;7.148;2023-10-13T18:35:09;19.2;99.9
38221;DHT22;24023;51.280;7.148;2023-10-13T18:40:12;19.2;99.9
38221;DHT22;24023;51.280;7.148;2023-10-13T18:45:11;19.3;99.9
38221;DHT22;24023;51.280;7.148;2023-10-13T18:50:09;19.3;99.9
38221;DHT22;24023;51.280;7.148;2023-10-13T18:55:08;19.3;99.9
38221;DHT22;24023;51.280;7.148;2023-10-13T19:00:16;19.3;99.9
38221;DHT22;24023;51.280;7.148;2023-10-13T19:05:10;19.3;99.9
38221;DHT22;24023;51.280;7.148;2023-10-13T19:10:15;19.3;99.9
38221;DHT22;24023;51.280;7.148;2023-10-13T19:15:09;19.3;99.9
38221;DHT22;24023;51.280;7.148;2023-10-13T19:20:09;19.1;99.9
38221;DHT22;24023;51.280;7.148;2023-10-13T19:25:11;19.1;99.9
38221;DHT22;24023;51.280;7.148;2023-10-13T19:30:10;19.1;99.9
38221;DHT22;24023;51.280;7.148;2023-10-13T19:35:07;19.1;99.9
38221;DHT22;24023;51.280;7.148;2023-10-13T19:40:09;19.1;99.9
38221;DHT22;24023;51.280;7.148;2023-10-13T19:45:13;19.1;99.9
38221;DHT22;24023;51.280;7.148;2023-10-13T19:50:13;19.1;99.9
38221;DHT22;24023;51.280;7.148;2023-10-13T19:55:07;19.1;99.9
38221;DHT22;24023;51.280;7.148;2023-10-13T20:00:20;19.1;99.9
38221;DHT22;24023;51.280;7.148;2023-10-13T20:05:07;18.9;99.9
38221;DHT22;24023;51.280;7.148;2023-10-13T20:10:10;18.9;99.9
38221;DHT22;24023;51.280;7.148;2023-10-13T20:15:09;18.5;99.9
38221;DHT22;24023;51.280;7.148;2023-10-13T20:20:12;18.5;99.9
38221;DHT22;24023;51.280;7.148;2023-10-13T20:25:08;18.5;99.9
38221;DHT22;24023;51.280;7.148;2023-10-13T20:30:11;18.3;99.9
38221;DHT22;24023;51.280;7.148;2023-10-13T20:35:07;18.3;99.9
38221;DHT22;24023;51.280;7.148;2023-10-13T20:40:18;18.2;99.9
38221;DHT22;24023;51.280;7.148;2023-10-13T20:45:10;18.2;99.9
38221;DHT22;24023;51.280;7.148;2023-10-13T20:50:11;18.2;99.9
38221;DHT22;24023;51.280;7.148;2023-10-13T20:55:06;18.3;99.9
38221;DHT22;24023;51.280;7.148;2023-10-13T21:00:20;18.3;99.9
38221;DHT22;24023;51.280;7.148;2023-10-13T21:05:09;18.1;99.9
38221;DHT22;24023;51.280;7.148;2023-10-13T21:10:13;18.1;99.9
38221;DHT22;24023;51.280;7.148;2023-10-13T21:15:16;17.9;99.9
38221;DHT22;24023;51.280;7.148;2023-10-13T21:20:11;17.9;99.9
38221;DHT22;24023;51.280;7.148;2023-10-13T21:25:07;18.0;99.9
38221;DHT22;24023;51.280;7.148;2023-10-13T21:30:12;18.0;99.9
38221;DHT22;24023;51.280;7.148;2023-10-13T21:35:08;18.2;99.9
38221;DHT22;24023;51.280;7.148;2023-10-13T21:40:09;18.2;99.9
38221;DHT22;24023;51.280;7.148;2023-10-13T21:45:11;18.3;99.9
38221;DHT22;24023;51.280;7.148;2023-10-13T21:50:13;18.3;99.9
38221;DHT22;24023;51.280;7.148;2023-10-13T21:55:07;18.3;99.9
38221;DHT22;24023;51.280;7.148;2023-10-13T22:00:30;18.5;99.9
38221;DHT22;24023;51.280;7.148;2023-10-13T22:05:10;18.5;99.9
38221;DHT22;24023;51.280;7.148;2023-10-13T22:10:12;18.5;99.9
38221;DHT22;24023;51.280;7.148;2023-10-13T22:15:08;18.5;99.9
38221;DHT22;24023;51.280;7.148;2023-10-13T22:20:12;18.5;99.9
38221;DHT22;24023;51.280;7.148;2023-10-13T22:25:12;18.5;99.9
38221;DHT22;24023;51.280;7.148;2023-10-13T22:30:13;18.5;99.9
38221;DHT22;24023;51.280;7.148;2023-10-13T22:35:08;18.5;99.9
38221;DHT22;24023;51.280;7.148;2023-10-13T22:40:11;18.5;99.9
38221;DHT22;24023;51.280;7.148;2023-10-13T22:45:18;18.5;99.9
38221;DHT22;24023;51.280;7.148;2023-10-13T22:50:13;18.5;99.9
38221;DHT22;24023;51.280;7.148;2023-10-13T22:55:19;18.5;99.9
38221;DHT22;24023;51.280;7.148;2023-10-13T23:00:12;18.4;99.9
38221;DHT22;24023;51.280;7.148;2023-10-13T23:05:28;18.4;99.9
38221;DHT22;24023;51.280;7.148;2023-10-13T23:10:33;18.3;99.9
38221;DHT22;24023;51.280;7.148;2023-10-13T23:15:13;18.3;99.9
38221;DHT22;24023;51.280;7.148;2023-10-13T23:20:12;18.3;99.9
38221;DHT22;24023;51.280;7.148;2023-10-13T23:25:09;18.3;99.9
38221;DHT22;24023;51.280;7.148;2023-10-13T23:30:11;18.2;99.9
38221;DHT22;24023;51.280;7.148;2023-10-13T23:35:07;18.2;99.9
38221;DHT22;24023;51.280;7.148;2023-10-13T23:40:22;18.3;99.9
38221;DHT22;24023;51.280;7.148;2023-10-13T23:45:19;18.3;99.9
38221;DHT22;24023;51.280;7.148;2023-10-13T23:50:16;18.3;99.9
38221;DHT22;24023;51.280;7.148;2023-10-13T23:55:17;18.2;99.9
